Brisbane International Airport
YBBN : now visible

Airfield :











YOU CAN JOIN US ON...

 
LOGIN :

Register | Disclaimer

   EN    FR    IT 

 









Legend :    VFR   Marginal VFR   IFR   Intensive IFR   Very Intensive IFR
Visi :
Ceiling :
>= 8 km
>= 3000ft
5 to 8 km
1000 to 3000 ft
1500m to 5 km
500 to 1000 ft
800 to 1500m
200 to 500 ft
< 800m
< 200 ft
Symbols :   Thunderstorms  Fog  Heavy snow  Heavy precipitations  Wind > 20 kt






- Airport Elevation : 13 ft
- IATA code : BNE


YBBN - Brisbane International

CURRENT METAR :
  • 170000Z 15006KT 120V180 9999 FEW025 29/21 Q1013 FM0200 08012KT 9999 SCT030

EXPIRED METARs :
  • 162330Z 13007KT 9999 FEW025 28/22 Q1013 FM0200 08012KT 9999 SCT030
  • 162300Z 12007KT 090V150 9999 SCT024 28/22 Q1013 NOSIG
  • 162230Z 13007KT 100V170 9999 SCT022 28/22 Q1013 NOSIG
  • 162200Z 14007KT 9999 FEW018 SCT022 28/23 Q1013 NOSIG
  • 162130Z 17006KT 9999 FEW016 27/23 Q1013 NOSIG

TAF TAF YBBN
Valid from the 17 at 00:00 until the 18 at 06:00 UTC


162308Z 1700/1806 12010KT 9999 SCT025
FM170200 08012KT 9999 SCT030
FM171700 17005KT 9999 SCT020
FM172300 07010KT 9999 SCT030



MET'MAP, your aeronautical weather chart ! - Copyright ORBIFLY December 2007 - Disclaimer

ORBIFLY MET'MAP TEAM :

Programming & Development : Alexandra Zaïnal
Concept & original design : Baudouin d'Aumeries
Assistance for programming : Marc-Olivier Méhu
Technical & hardware support : Manuel Goepfert

Contact : metmap@orbifly.com




SOURCES & CREDITS :

   NOAA       Earth
Advisory